createdAt,value
2018-09-26T00:00:55.645Z,4.10
2018-09-26T00:01:55.596Z,3.60
2018-09-26T00:02:55.549Z,4.00
2018-09-26T00:03:55.502Z,3.90
2018-09-26T00:04:55.455Z,3.90
2018-09-26T00:05:55.405Z,3.50
2018-09-26T00:06:55.357Z,3.60
2018-09-26T00:07:55.316Z,3.60
2018-09-26T00:08:55.265Z,3.80
2018-09-26T00:09:55.217Z,3.70
2018-09-26T00:10:55.171Z,3.10
2018-09-26T00:11:55.128Z,3.50
2018-09-26T00:12:55.073Z,4.00
2018-09-26T00:13:55.031Z,3.10
2018-09-26T00:14:54.980Z,3.10
2018-09-26T00:15:54.935Z,3.00
2018-09-26T00:16:54.883Z,3.30
2018-09-26T00:17:54.842Z,3.10
2018-09-26T00:18:54.791Z,3.20
2018-09-26T00:19:54.741Z,3.20
2018-09-26T00:20:54.698Z,3.30
2018-09-26T00:21:54.648Z,3.20
2018-09-26T00:22:54.600Z,3.50
2018-09-26T00:23:54.552Z,3.00
2018-09-26T00:24:54.508Z,3.30
2018-09-26T00:25:54.459Z,3.40
2018-09-26T00:26:54.411Z,3.00
2018-09-26T00:27:54.366Z,3.30
2018-09-26T00:28:54.317Z,3.60
2018-09-26T00:29:54.270Z,3.00
2018-09-26T00:30:54.222Z,3.60
2018-09-26T00:31:54.176Z,3.50
2018-09-26T00:32:54.126Z,3.40
2018-09-26T00:33:54.078Z,3.70
2018-09-26T00:34:54.033Z,3.40
2018-09-26T00:35:54.080Z,3.10
2018-09-26T00:36:53.940Z,3.20
2018-09-26T00:37:53.889Z,3.30
2018-09-26T00:38:53.843Z,3.40
2018-09-26T00:39:53.803Z,3.70
2018-09-26T00:40:53.758Z,3.30
2018-09-26T00:41:53.698Z,3.30
2018-09-26T00:42:53.655Z,3.40
2018-09-26T00:43:53.605Z,3.40
2018-09-26T00:44:53.559Z,3.20
2018-09-26T00:45:53.507Z,3.40
2018-09-26T00:46:53.468Z,3.40
2018-09-26T00:47:53.414Z,3.20
2018-09-26T00:48:53.369Z,3.60
2018-09-26T00:49:53.321Z,3.70
2018-09-26T00:50:53.272Z,3.40
2018-09-26T00:51:53.224Z,3.50
2018-09-26T00:52:53.179Z,3.30
2018-09-26T00:53:53.135Z,3.20
2018-09-26T00:54:53.080Z,3.40
2018-09-26T00:55:53.033Z,3.80
2018-09-26T00:56:52.996Z,3.40
2018-09-26T00:57:52.943Z,3.90
2018-09-26T00:58:52.892Z,3.30
2018-09-26T00:59:52.847Z,3.60
2018-09-26T01:00:52.798Z,3.20
2018-09-26T01:01:52.757Z,3.40
2018-09-26T01:02:52.703Z,3.50
2018-09-26T01:03:52.665Z,3.60
2018-09-26T01:04:52.607Z,3.20
2018-09-26T01:05:52.565Z,3.40
2018-09-26T01:06:52.526Z,3.50
2018-09-26T01:07:52.484Z,3.20
2018-09-26T01:08:52.479Z,3.20
2018-09-26T01:09:52.370Z,2.90
2018-09-26T01:10:52.329Z,3.00
2018-09-26T01:11:52.280Z,3.00
2018-09-26T01:12:52.229Z,3.30
2018-09-26T01:13:52.182Z,2.90
2018-09-26T01:14:52.135Z,3.00
2018-09-26T01:15:52.093Z,2.70
2018-09-26T01:16:52.048Z,2.90
2018-09-26T01:17:51.991Z,2.90
2018-09-26T01:18:51.948Z,3.50
2018-09-26T01:19:51.896Z,3.00
2018-09-26T01:20:51.848Z,2.80
2018-09-26T01:21:51.804Z,2.70
2018-09-26T01:22:51.756Z,2.80
2018-09-26T01:23:51.707Z,2.90
2018-09-26T01:24:51.663Z,2.50
2018-09-26T01:25:51.611Z,3.20
2018-09-26T01:26:51.564Z,2.90
2018-09-26T01:27:51.519Z,3.00
2018-09-26T01:28:51.486Z,2.80
2018-09-26T01:29:51.445Z,2.90
2018-09-26T01:30:51.418Z,2.60
2018-09-26T01:31:51.333Z,2.80
2018-09-26T01:32:51.283Z,2.70
2018-09-26T01:33:51.234Z,3.00
2018-09-26T01:34:51.185Z,3.20
2018-09-26T01:35:51.143Z,3.10
2018-09-26T01:36:51.092Z,3.20
2018-09-26T01:37:51.042Z,3.30
2018-09-26T01:38:51.000Z,3.40
2018-09-26T01:39:50.951Z,2.50
2018-09-26T01:40:50.905Z,3.10
2018-09-26T01:41:50.855Z,2.80
2018-09-26T01:42:50.810Z,2.60
2018-09-26T01:43:50.761Z,2.70
2018-09-26T01:44:50.713Z,3.10
2018-09-26T01:45:50.664Z,2.70
2018-09-26T01:46:50.622Z,2.50
2018-09-26T01:47:50.570Z,2.80
2018-09-26T01:48:50.527Z,3.00
2018-09-26T01:49:50.477Z,2.80
2018-09-26T01:50:50.434Z,2.90
2018-09-26T01:51:50.379Z,2.70
2018-09-26T01:52:50.336Z,2.90
2018-09-26T01:53:50.301Z,2.50
2018-09-26T01:54:50.237Z,2.90
2018-09-26T01:55:50.197Z,3.70
2018-09-26T01:56:50.143Z,2.70
2018-09-26T01:57:50.099Z,2.90
2018-09-26T01:58:50.049Z,2.60
2018-09-26T01:59:50.000Z,2.50
2018-09-26T02:00:49.958Z,2.70
2018-09-26T02:01:49.907Z,2.70
2018-09-26T02:02:49.864Z,2.80
2018-09-26T02:03:49.817Z,3.00
2018-09-26T02:04:49.769Z,2.70
2018-09-26T02:05:49.716Z,2.90
2018-09-26T02:06:49.669Z,2.50
2018-09-26T02:07:49.623Z,2.90
2018-09-26T02:08:49.575Z,2.70
2018-09-26T02:09:49.528Z,2.60
2018-09-26T02:10:49.480Z,2.90
2018-09-26T02:11:49.435Z,2.80
2018-09-26T02:12:49.387Z,3.10
2018-09-26T02:13:49.337Z,2.80
2018-09-26T02:14:49.289Z,2.90
2018-09-26T02:15:49.248Z,2.50
2018-09-26T02:16:49.196Z,2.80
2018-09-26T02:17:49.146Z,2.70
2018-09-26T02:18:49.102Z,2.90
2018-09-26T02:19:49.064Z,2.80
2018-09-26T02:20:49.008Z,2.80
2018-09-26T02:21:48.956Z,2.60
2018-09-26T02:22:48.910Z,2.70
2018-09-26T02:23:48.997Z,2.70
2018-09-26T02:24:48.818Z,2.50
2018-09-26T02:25:48.768Z,3.10
2018-09-26T02:26:48.726Z,2.80
2018-09-26T02:27:48.671Z,2.90
2018-09-26T02:28:48.629Z,2.70
2018-09-26T02:29:48.580Z,2.90
2018-09-26T02:30:48.530Z,2.80
2018-09-26T02:31:48.486Z,2.70
2018-09-26T02:32:48.436Z,2.70
2018-09-26T02:33:48.392Z,2.80
2018-09-26T02:34:48.343Z,2.50
2018-09-26T02:35:48.293Z,2.90
2018-09-26T02:36:48.245Z,2.70
2018-09-26T02:37:48.201Z,2.90
2018-09-26T02:38:48.151Z,2.80
2018-09-26T02:39:48.104Z,2.50
2018-09-26T02:40:48.055Z,3.00
2018-09-26T02:41:48.008Z,2.80
2018-09-26T02:42:47.960Z,2.60
2018-09-26T02:43:47.917Z,2.80
2018-09-26T02:44:47.869Z,2.90
2018-09-26T02:45:47.816Z,3.20
2018-09-26T02:46:47.782Z,3.20
2018-09-26T02:47:47.725Z,2.60
2018-09-26T02:48:47.676Z,3.00
2018-09-26T02:49:47.632Z,2.70
2018-09-26T02:50:47.580Z,2.80
2018-09-26T02:51:47.532Z,3.10
2018-09-26T02:52:47.488Z,3.10
2018-09-26T02:53:47.439Z,2.70
2018-09-26T02:54:47.389Z,2.80
2018-09-26T02:55:47.425Z,2.60
2018-09-26T02:56:47.294Z,2.70
2018-09-26T02:57:47.247Z,2.90
2018-09-26T02:58:47.203Z,2.60
2018-09-26T02:59:47.155Z,2.90
2018-09-26T03:00:47.111Z,2.80
2018-09-26T03:01:47.060Z,2.80
2018-09-26T03:02:47.170Z,2.70
2018-09-26T03:03:46.962Z,2.90
2018-09-26T03:04:46.920Z,3.30
2018-09-26T03:05:46.869Z,2.80
2018-09-26T03:06:46.820Z,3.10
2018-09-26T03:07:46.778Z,3.10
2018-09-26T03:08:46.725Z,3.00
2018-09-26T03:09:46.675Z,2.80
2018-09-26T03:10:46.637Z,2.90
2018-09-26T03:11:46.583Z,2.70
2018-09-26T03:12:46.535Z,3.10
2018-09-26T03:13:46.488Z,2.70
2018-09-26T03:14:46.443Z,2.70
2018-09-26T03:15:46.391Z,2.70
2018-09-26T03:16:46.346Z,3.10
2018-09-26T03:17:46.350Z,3.10
2018-09-26T03:18:46.248Z,2.70
2018-09-26T03:19:46.213Z,3.00
2018-09-26T03:20:46.158Z,2.90
2018-09-26T03:21:46.110Z,2.80
2018-09-26T03:22:46.060Z,2.90
2018-09-26T03:23:46.012Z,3.00
2018-09-26T03:24:45.965Z,3.00
2018-09-26T03:25:45.917Z,3.00
2018-09-26T03:26:45.872Z,3.00
2018-09-26T03:27:45.826Z,2.80
2018-09-26T03:28:45.772Z,2.90
2018-09-26T03:29:45.724Z,3.10
2018-09-26T03:30:45.678Z,3.10
2018-09-26T03:31:45.636Z,3.20
2018-09-26T03:32:45.585Z,2.90
2018-09-26T03:33:45.596Z,3.00
2018-09-26T03:34:45.486Z,3.20
2018-09-26T03:35:45.440Z,3.00
2018-09-26T03:36:45.392Z,2.80
2018-09-26T03:37:45.344Z,3.30
2018-09-26T03:38:45.296Z,2.90
2018-09-26T03:39:45.252Z,3.40
2018-09-26T03:40:45.202Z,3.20
2018-09-26T03:41:45.153Z,2.70
2018-09-26T03:42:45.105Z,3.50
2018-09-26T03:43:45.057Z,3.10
2018-09-26T03:44:45.013Z,3.20
2018-09-26T03:45:44.962Z,3.30
2018-09-26T03:46:44.916Z,3.40
2018-09-26T03:47:44.867Z,3.30
2018-09-26T03:48:44.819Z,3.10
2018-09-26T03:49:44.772Z,3.00
2018-09-26T03:50:44.724Z,3.00
2018-09-26T03:51:44.677Z,3.30
2018-09-26T03:52:44.634Z,3.10
2018-09-26T03:53:44.582Z,3.30
2018-09-26T03:54:44.533Z,2.90
2018-09-26T03:55:44.485Z,3.30
2018-09-26T03:56:44.439Z,3.20
2018-09-26T03:57:44.392Z,3.50
2018-09-26T03:58:44.348Z,3.60
2018-09-26T03:59:44.294Z,3.20
2018-09-26T04:00:44.249Z,3.40
2018-09-26T04:01:44.199Z,3.30
2018-09-26T04:02:44.156Z,3.50
2018-09-26T04:03:47.509Z,3.20
2018-09-26T04:04:44.100Z,3.40
2018-09-26T04:05:44.010Z,3.10
2018-09-26T04:06:43.967Z,3.40
2018-09-26T04:07:43.922Z,3.00
2018-09-26T04:08:43.867Z,3.20
2018-09-26T04:09:43.820Z,3.10
2018-09-26T04:10:43.770Z,3.00
2018-09-26T04:11:43.726Z,2.90
2018-09-26T04:12:43.797Z,2.90
2018-09-26T04:13:43.630Z,3.00
2018-09-26T04:14:43.582Z,3.00
2018-09-26T04:15:43.663Z,3.50
2018-09-26T04:16:43.490Z,3.20
2018-09-26T04:17:43.437Z,3.50
2018-09-26T04:18:43.389Z,3.30
2018-09-26T04:19:43.342Z,3.00
2018-09-26T04:20:43.298Z,2.80
2018-09-26T04:21:43.250Z,3.00
2018-09-26T04:22:43.201Z,3.10
2018-09-26T04:23:43.152Z,2.90
2018-09-26T04:24:43.126Z,3.20
2018-09-26T04:25:43.067Z,3.60
2018-09-26T04:26:43.231Z,3.40
2018-09-26T04:27:43.041Z,3.20
2018-09-26T04:28:42.917Z,2.90
2018-09-26T04:29:42.878Z,3.00
2018-09-26T04:30:42.822Z,3.00
2018-09-26T04:31:42.781Z,3.00
2018-09-26T04:32:42.839Z,2.90
2018-09-26T04:33:42.761Z,3.30
2018-09-26T04:34:42.632Z,2.70
2018-09-26T04:35:42.582Z,3.00
2018-09-26T04:36:42.543Z,2.70
2018-09-26T04:37:42.491Z,3.00
2018-09-26T04:38:42.571Z,2.90
2018-09-26T04:39:42.393Z,2.90
2018-09-26T04:40:42.349Z,2.80
2018-09-26T04:41:42.296Z,2.70
2018-09-26T04:42:42.250Z,3.00
2018-09-26T04:43:42.204Z,2.50
2018-09-26T04:44:42.154Z,3.20
2018-09-26T04:45:42.105Z,2.60
2018-09-26T04:46:42.059Z,2.70
2018-09-26T04:47:42.011Z,2.80
2018-09-26T04:48:41.976Z,2.80
2018-09-26T04:49:41.922Z,2.60
2018-09-26T04:50:41.899Z,2.70
2018-09-26T04:51:41.826Z,2.70
2018-09-26T04:52:41.790Z,3.10
2018-09-26T04:53:41.727Z,2.90
2018-09-26T04:54:41.680Z,2.50
2018-09-26T04:55:41.640Z,3.20
2018-09-26T04:56:41.585Z,3.10
2018-09-26T04:57:41.563Z,2.60
2018-09-26T04:58:41.490Z,2.80
2018-09-26T04:59:41.443Z,2.80
2018-09-26T05:00:41.408Z,2.90
2018-09-26T05:01:41.362Z,2.80
2018-09-26T05:02:41.306Z,2.90
2018-09-26T05:03:41.263Z,2.70
2018-09-26T05:04:41.210Z,2.80
2018-09-26T05:05:41.156Z,2.70
2018-09-26T05:06:41.110Z,3.00
2018-09-26T05:07:41.064Z,3.10
2018-09-26T05:08:41.019Z,3.10
2018-09-26T05:09:40.969Z,2.80
2018-09-26T05:10:40.927Z,3.00
2018-09-26T05:11:40.874Z,3.40
2018-09-26T05:12:40.829Z,3.40
2018-09-26T05:13:40.780Z,3.40
2018-09-26T05:14:40.779Z,3.50
2018-09-26T05:15:40.685Z,3.30
2018-09-26T05:16:40.637Z,3.30
2018-09-26T05:17:40.592Z,3.30
2018-09-26T05:18:40.549Z,3.10
2018-09-26T05:19:40.501Z,3.40
2018-09-26T05:20:40.448Z,3.10
2018-09-26T05:21:40.401Z,3.10
2018-09-26T05:22:40.435Z,3.60
2018-09-26T05:23:40.305Z,3.30
2018-09-26T05:24:40.257Z,3.40
2018-09-26T05:25:40.208Z,3.00
2018-09-26T05:26:40.164Z,3.10
2018-09-26T05:27:40.118Z,3.50
2018-09-26T05:28:40.067Z,3.40
2018-09-26T05:29:40.022Z,3.50
2018-09-26T05:30:39.972Z,3.60
2018-09-26T05:31:39.924Z,3.30
2018-09-26T05:32:39.877Z,3.50
2018-09-26T05:33:39.829Z,3.40
2018-09-26T05:34:39.784Z,3.60
2018-09-26T05:35:39.751Z,3.30
2018-09-26T05:36:39.688Z,3.50
2018-09-26T05:37:39.639Z,3.50
2018-09-26T05:38:39.598Z,3.30
2018-09-26T05:39:39.545Z,3.00
2018-09-26T05:40:39.498Z,3.10
2018-09-26T05:41:39.490Z,3.70
2018-09-26T05:42:39.402Z,3.30
2018-09-26T05:43:39.358Z,3.50
2018-09-26T05:44:39.311Z,3.10
2018-09-26T05:45:39.264Z,3.50
2018-09-26T05:46:39.215Z,3.00
2018-09-26T05:47:39.169Z,2.90
2018-09-26T05:48:39.120Z,3.00
2018-09-26T05:49:39.071Z,2.90
2018-09-26T05:50:39.026Z,2.90
2018-09-26T05:51:38.979Z,2.90
2018-09-26T05:52:38.929Z,2.60
2018-09-26T05:53:38.881Z,2.70
2018-09-26T05:54:38.836Z,2.90
2018-09-26T05:55:38.788Z,2.60
2018-09-26T05:56:38.745Z,2.90
2018-09-26T05:57:38.695Z,2.40
2018-09-26T05:58:38.643Z,2.40
2018-09-26T05:59:38.619Z,2.30
2018-09-26T06:00:38.552Z,2.80
2018-09-26T06:01:38.502Z,2.50
2018-09-26T06:02:38.457Z,2.70
2018-09-26T06:03:38.408Z,2.30
2018-09-26T06:04:38.368Z,2.20
2018-09-26T06:05:38.314Z,2.60
2018-09-26T06:06:38.265Z,2.80
2018-09-26T06:07:38.221Z,2.30
2018-09-26T06:08:38.176Z,2.60
2018-09-26T06:09:38.126Z,2.20
2018-09-26T06:10:38.092Z,2.00
2018-09-26T06:11:38.031Z,2.20
2018-09-26T06:12:37.984Z,2.10
2018-09-26T06:13:37.935Z,2.30
2018-09-26T06:14:37.896Z,2.10
2018-09-26T06:15:37.845Z,2.30
2018-09-26T06:16:37.795Z,2.30
2018-09-26T06:17:37.747Z,1.90
2018-09-26T06:18:37.699Z,2.30
2018-09-26T06:19:37.653Z,2.30
2018-09-26T06:20:37.605Z,2.20
2018-09-26T06:21:37.566Z,2.00
2018-09-26T06:22:37.512Z,2.30
2018-09-26T06:23:37.464Z,2.20
2018-09-26T06:24:37.476Z,3.10
2018-09-26T06:25:37.369Z,2.20
2018-09-26T06:26:37.322Z,2.20
2018-09-26T06:27:37.278Z,2.10
2018-09-26T06:28:37.235Z,2.30
2018-09-26T06:29:37.716Z,2.20
2018-09-26T06:30:37.137Z,2.50
2018-09-26T06:31:37.088Z,2.00
2018-09-26T06:32:37.513Z,2.00
2018-09-26T06:33:36.992Z,2.10
2018-09-26T06:34:36.946Z,2.10
2018-09-26T06:35:36.899Z,2.00
2018-09-26T06:36:36.856Z,2.20
2018-09-26T06:37:36.804Z,1.90
2018-09-26T06:38:36.759Z,2.20
2018-09-26T06:39:36.712Z,1.90
2018-09-26T06:40:36.710Z,2.00
2018-09-26T06:41:36.619Z,2.10
2018-09-26T06:42:36.571Z,2.20
2018-09-26T06:43:36.524Z,2.00
2018-09-26T06:44:36.478Z,2.40
2018-09-26T06:45:36.431Z,2.10
2018-09-26T06:46:36.384Z,2.10
2018-09-26T06:47:36.491Z,2.10
2018-09-26T06:48:36.295Z,2.10
2018-09-26T06:49:36.248Z,2.10
2018-09-26T06:50:36.203Z,1.80
2018-09-26T06:51:36.154Z,1.70
2018-09-26T06:52:36.105Z,1.90
2018-09-26T06:53:36.061Z,1.80
2018-09-26T06:54:36.014Z,1.80
2018-09-26T06:55:35.969Z,2.00
2018-09-26T06:56:35.921Z,1.70
2018-09-26T06:57:35.875Z,1.90
2018-09-26T06:58:35.829Z,1.90
2018-09-26T06:59:35.787Z,2.10
2018-09-26T07:00:35.735Z,1.90
2018-09-26T07:01:35.690Z,1.60
2018-09-26T07:02:35.647Z,1.80
2018-09-26T07:03:35.599Z,1.70
2018-09-26T07:04:35.553Z,1.90
2018-09-26T07:05:35.505Z,1.90
2018-09-26T07:06:35.461Z,1.80
2018-09-26T07:07:35.413Z,1.90
2018-09-26T07:08:35.366Z,1.90
2018-09-26T07:09:35.334Z,1.90
2018-09-26T07:10:35.275Z,1.70
2018-09-26T07:11:35.235Z,1.90
2018-09-26T07:12:35.181Z,2.00
2018-09-26T07:13:35.143Z,1.80
2018-09-26T07:14:35.093Z,1.70
2018-09-26T07:15:35.044Z,2.00
2018-09-26T07:16:34.998Z,1.70
2018-09-26T07:17:34.953Z,2.00
2018-09-26T07:18:34.907Z,1.70
2018-09-26T07:19:34.863Z,2.00
2018-09-26T07:20:34.815Z,1.60
2018-09-26T07:21:34.768Z,2.10
2018-09-26T07:22:34.722Z,1.40
2018-09-26T07:23:34.746Z,1.90
2018-09-26T07:24:34.631Z,2.00
2018-09-26T07:25:35.043Z,2.10
2018-09-26T07:26:34.538Z,2.00
2018-09-26T07:27:35.110Z,1.80
2018-09-26T07:28:34.448Z,2.00
2018-09-26T07:29:34.913Z,2.00
2018-09-26T07:30:34.356Z,1.90
2018-09-26T07:31:34.464Z,2.10
2018-09-26T07:32:34.266Z,1.90
2018-09-26T07:33:34.222Z,1.90
2018-09-26T07:34:34.173Z,2.10
2018-09-26T07:35:34.128Z,1.80
2018-09-26T07:36:34.085Z,2.10
2018-09-26T07:37:34.038Z,1.90
2018-09-26T07:38:34.051Z,2.00
2018-09-26T07:39:33.947Z,1.80
2018-09-26T07:40:33.901Z,2.10
2018-09-26T07:41:33.855Z,2.20
2018-09-26T07:42:33.810Z,2.00
2018-09-26T07:43:33.766Z,2.10
2018-09-26T07:44:33.719Z,2.10
2018-09-26T07:45:34.272Z,2.10
2018-09-26T07:46:33.634Z,1.90
2018-09-26T07:47:33.854Z,2.20
2018-09-26T07:48:33.540Z,1.90
2018-09-26T07:49:34.567Z,2.20
2018-09-26T07:50:33.447Z,2.00
2018-09-26T07:51:34.013Z,2.10
2018-09-26T07:52:33.358Z,2.20
2018-09-26T07:53:34.281Z,2.20
2018-09-26T07:54:33.267Z,2.20
2018-09-26T07:55:34.119Z,2.20
2018-09-26T07:56:33.175Z,2.20
2018-09-26T07:57:34.053Z,2.30
2018-09-26T07:58:33.091Z,2.30
2018-09-26T07:59:34.061Z,3.00
2018-09-26T08:00:33.021Z,2.50
2018-09-26T08:01:33.884Z,2.40
2018-09-26T08:02:32.912Z,2.40
2018-09-26T08:03:33.815Z,2.40
2018-09-26T08:04:32.816Z,3.10
2018-09-26T08:05:33.642Z,2.40
2018-09-26T08:06:32.736Z,2.50
2018-09-26T08:07:33.645Z,2.40
2018-09-26T08:08:32.640Z,2.40
2018-09-26T08:09:32.913Z,2.80
2018-09-26T08:10:32.543Z,2.60
2018-09-26T08:11:33.440Z,2.60
2018-09-26T08:12:32.454Z,2.10
2018-09-26T08:13:32.849Z,2.80
2018-09-26T08:14:32.362Z,2.60
2018-09-26T08:15:32.320Z,2.90
2018-09-26T08:16:32.275Z,2.90
2018-09-26T08:17:32.228Z,2.60
2018-09-26T08:18:32.332Z,2.70
2018-09-26T08:19:32.143Z,2.70
2018-09-26T08:20:32.093Z,2.40
2018-09-26T08:21:32.055Z,2.70
2018-09-26T08:22:32.003Z,2.30
2018-09-26T08:23:31.961Z,2.10
2018-09-26T08:24:31.916Z,2.30
2018-09-26T08:25:31.871Z,2.20
2018-09-26T08:26:31.827Z,2.30
2018-09-26T08:27:31.781Z,2.40
2018-09-26T08:28:31.738Z,2.10
2018-09-26T08:29:31.693Z,2.30
2018-09-26T08:30:31.647Z,2.30
2018-09-26T08:31:31.604Z,2.40
2018-09-26T08:32:31.561Z,2.10
2018-09-26T08:33:31.513Z,2.40
2018-09-26T08:34:31.468Z,2.10
2018-09-26T08:35:31.427Z,2.60
2018-09-26T08:36:31.386Z,2.40
2018-09-26T08:37:31.335Z,2.10
2018-09-26T08:38:31.305Z,2.50
2018-09-26T08:39:31.254Z,2.50
2018-09-26T08:40:31.211Z,2.70
2018-09-26T08:41:31.163Z,2.30
2018-09-26T08:42:31.120Z,2.80
2018-09-26T08:43:31.069Z,2.60
2018-09-26T08:44:31.029Z,2.30
2018-09-26T08:45:30.984Z,2.70
2018-09-26T08:46:30.937Z,2.70
2018-09-26T08:47:30.892Z,2.60
2018-09-26T08:48:30.851Z,2.80
2018-09-26T08:49:30.804Z,2.70
2018-09-26T08:50:30.766Z,2.80
2018-09-26T08:51:30.721Z,2.80
2018-09-26T08:52:30.678Z,2.90
2018-09-26T08:53:30.647Z,2.70
2018-09-26T08:54:30.587Z,2.50
2018-09-26T08:55:30.542Z,2.80
2018-09-26T08:56:30.498Z,2.90
2018-09-26T08:57:30.456Z,2.70
2018-09-26T08:58:30.410Z,3.00
2018-09-26T08:59:30.399Z,3.00
2018-09-26T09:00:30.324Z,2.90
2018-09-26T09:01:30.280Z,2.70
2018-09-26T09:02:30.235Z,2.90
2018-09-26T09:03:30.191Z,3.00
2018-09-26T09:04:30.151Z,2.70
2018-09-26T09:05:30.105Z,2.50
2018-09-26T09:06:30.061Z,2.50
2018-09-26T09:07:30.017Z,2.40
2018-09-26T09:08:29.976Z,2.60
2018-09-26T09:09:29.936Z,2.10
2018-09-26T09:10:29.887Z,2.40
2018-09-26T09:11:29.865Z,2.20
2018-09-26T09:12:29.802Z,2.40
2018-09-26T09:13:29.756Z,2.40
2018-09-26T09:14:29.854Z,2.40
2018-09-26T09:15:29.668Z,2.30
2018-09-26T09:16:29.628Z,2.30
2018-09-26T09:17:29.580Z,2.70
2018-09-26T09:18:29.550Z,2.80
2018-09-26T09:19:29.499Z,2.50
2018-09-26T09:20:29.451Z,2.70
2018-09-26T09:21:29.412Z,2.50
2018-09-26T09:22:29.363Z,2.70
2018-09-26T09:23:29.320Z,2.70
2018-09-26T09:24:29.276Z,2.40
2018-09-26T09:25:29.236Z,2.10
2018-09-26T09:26:29.195Z,2.20
2018-09-26T09:27:29.199Z,2.70
2018-09-26T09:28:29.103Z,2.30
2018-09-26T09:29:29.061Z,2.00
2018-09-26T09:30:29.017Z,2.30
2018-09-26T09:31:28.973Z,2.00
2018-09-26T09:32:28.928Z,2.20
2018-09-26T09:33:28.888Z,2.90
2018-09-26T09:34:28.841Z,2.80
2018-09-26T09:35:28.798Z,2.70
2018-09-26T09:36:28.792Z,2.50
2018-09-26T09:37:28.711Z,2.30
2018-09-26T09:38:28.670Z,2.10
2018-09-26T09:39:28.631Z,2.30
2018-09-26T09:40:28.583Z,2.20
2018-09-26T09:41:28.540Z,2.40
2018-09-26T09:42:28.493Z,2.20
2018-09-26T09:43:28.494Z,2.70
2018-09-26T09:44:28.475Z,2.40
2018-09-26T09:45:28.361Z,2.40
2018-09-26T09:46:28.325Z,2.20
2018-09-26T09:47:28.276Z,2.30
2018-09-26T09:48:28.232Z,2.40
2018-09-26T09:49:28.188Z,2.40
2018-09-26T09:50:28.147Z,2.40
2018-09-26T09:51:28.111Z,2.30
2018-09-26T09:52:28.065Z,2.40
2018-09-26T09:53:28.016Z,2.60
2018-09-26T09:54:27.982Z,2.20
2018-09-26T09:55:27.932Z,2.80
2018-09-26T09:56:27.887Z,2.70
2018-09-26T09:57:27.842Z,2.90
2018-09-26T09:58:27.799Z,3.00
2018-09-26T09:59:27.756Z,2.60
2018-09-26T10:00:27.713Z,2.70
2018-09-26T10:01:27.672Z,2.90
2018-09-26T10:02:27.829Z,2.90
2018-09-26T10:03:27.586Z,2.90
2018-09-26T10:04:27.540Z,2.60
2018-09-26T10:05:27.500Z,2.70
2018-09-26T10:06:27.454Z,2.70
2018-09-26T10:07:27.416Z,3.00
2018-09-26T10:08:27.370Z,2.80
2018-09-26T10:09:27.325Z,2.90
2018-09-26T10:10:27.284Z,2.50
2018-09-26T10:11:27.241Z,2.70
2018-09-26T10:12:27.195Z,2.80
2018-09-26T10:13:27.153Z,2.90
2018-09-26T10:14:27.199Z,3.00
2018-09-26T10:15:27.071Z,2.80
2018-09-26T10:16:27.026Z,2.70
2018-09-26T10:17:26.997Z,2.80
2018-09-26T10:18:26.937Z,2.50
2018-09-26T10:19:26.892Z,2.50
2018-09-26T10:20:26.950Z,2.70
2018-09-26T10:21:26.810Z,2.70
2018-09-26T10:22:26.767Z,2.80
2018-09-26T10:23:26.720Z,2.80
2018-09-26T10:24:26.678Z,3.10
2018-09-26T10:25:26.636Z,2.70
2018-09-26T10:26:26.627Z,2.60
2018-09-26T10:27:26.548Z,2.80
2018-09-26T10:28:26.509Z,3.20
2018-09-26T10:29:26.465Z,2.80
2018-09-26T10:30:26.419Z,2.60
2018-09-26T10:31:26.377Z,2.90
2018-09-26T10:32:26.445Z,2.70
2018-09-26T10:33:26.292Z,2.90
2018-09-26T10:34:26.247Z,2.50
2018-09-26T10:35:26.205Z,2.80
2018-09-26T10:36:26.163Z,3.00
2018-09-26T10:37:26.119Z,3.70
2018-09-26T10:38:26.206Z,3.40
2018-09-26T10:39:26.033Z,3.10
2018-09-26T10:40:25.992Z,3.20
2018-09-26T10:41:25.946Z,3.10
2018-09-26T10:42:25.904Z,2.80
2018-09-26T10:43:25.863Z,3.10
2018-09-26T10:44:25.820Z,2.90
2018-09-26T10:45:25.775Z,2.90
2018-09-26T10:46:25.735Z,3.30
2018-09-26T10:47:25.694Z,3.10
2018-09-26T10:48:25.649Z,3.20
2018-09-26T10:49:25.605Z,3.00
2018-09-26T10:50:25.638Z,3.00
2018-09-26T10:51:25.522Z,2.90
2018-09-26T10:52:25.475Z,3.10
2018-09-26T10:53:25.433Z,2.80
2018-09-26T10:54:25.395Z,2.80
2018-09-26T10:55:25.347Z,3.10
2018-09-26T10:56:25.441Z,2.90
2018-09-26T10:57:25.265Z,2.90
2018-09-26T10:58:25.227Z,3.30
2018-09-26T10:59:25.179Z,2.90
2018-09-26T11:00:25.132Z,3.20
2018-09-26T11:01:25.090Z,3.30
2018-09-26T11:02:25.056Z,3.10
2018-09-26T11:03:25.008Z,3.10
2018-09-26T11:04:25.080Z,3.00
2018-09-26T11:05:24.918Z,3.20
2018-09-26T11:06:24.877Z,3.30
2018-09-26T11:07:24.837Z,3.00
2018-09-26T11:08:24.917Z,2.80
2018-09-26T11:09:24.747Z,3.20
2018-09-26T11:10:24.803Z,3.20
2018-09-26T11:11:24.668Z,3.50
2018-09-26T11:12:24.621Z,3.70
2018-09-26T11:13:24.575Z,3.50
2018-09-26T11:14:24.624Z,3.30
2018-09-26T11:15:24.509Z,3.10
2018-09-26T11:16:24.609Z,3.20
2018-09-26T11:17:24.402Z,3.30
2018-09-26T11:18:24.363Z,3.60
2018-09-26T11:19:24.324Z,3.00
2018-09-26T11:20:24.296Z,3.40
2018-09-26T11:21:24.321Z,3.30
2018-09-26T11:22:24.313Z,3.90
2018-09-26T11:23:24.156Z,3.40
2018-09-26T11:24:24.106Z,3.30
2018-09-26T11:25:24.063Z,3.60
2018-09-26T11:26:24.177Z,3.20
2018-09-26T11:27:23.977Z,3.40
2018-09-26T11:28:23.983Z,3.80
2018-09-26T11:29:23.902Z,3.20
2018-09-26T11:30:23.847Z,3.40
2018-09-26T11:31:23.803Z,3.40
2018-09-26T11:32:23.829Z,3.20
2018-09-26T11:33:23.801Z,3.30
2018-09-26T11:34:23.771Z,3.20
2018-09-26T11:35:23.630Z,3.50
2018-09-26T11:36:23.588Z,3.30
2018-09-26T11:37:23.545Z,2.90
2018-09-26T11:38:23.519Z,2.90
2018-09-26T11:39:23.463Z,2.90
2018-09-26T11:40:23.473Z,2.90
2018-09-26T11:41:23.376Z,2.80
2018-09-26T11:42:23.330Z,2.90
2018-09-26T11:43:23.290Z,2.90
2018-09-26T11:44:23.317Z,3.50
2018-09-26T11:45:23.203Z,3.20
2018-09-26T11:46:23.218Z,3.20
2018-09-26T11:47:23.122Z,3.50
2018-09-26T11:48:23.084Z,2.70
2018-09-26T11:49:23.033Z,3.10
2018-09-26T11:50:23.027Z,3.40
2018-09-26T11:51:22.949Z,3.60
2018-09-26T11:52:22.931Z,3.10
2018-09-26T11:53:22.863Z,3.00
2018-09-26T11:54:22.816Z,3.00
2018-09-26T11:55:22.774Z,3.30
2018-09-26T11:56:22.786Z,3.20
2018-09-26T11:57:22.688Z,3.30
2018-09-26T11:58:22.698Z,3.50
2018-09-26T11:59:22.604Z,3.60
2018-09-26T12:00:22.560Z,3.20
2018-09-26T12:01:22.520Z,3.50
2018-09-26T12:02:22.571Z,3.30
2018-09-26T12:03:22.433Z,4.00
2018-09-26T12:04:22.468Z,3.70
2018-09-26T12:05:22.374Z,4.00
2018-09-26T12:06:22.353Z,4.70
2018-09-26T12:07:22.280Z,4.30
2018-09-26T12:08:22.270Z,4.00
2018-09-26T12:09:22.179Z,4.60
2018-09-26T12:10:22.168Z,4.30
2018-09-26T12:11:22.136Z,4.60
2018-09-26T12:12:22.058Z,4.50
2018-09-26T12:13:22.012Z,4.00
2018-09-26T12:14:22.796Z,4.20
2018-09-26T12:15:21.927Z,3.90
2018-09-26T12:16:22.024Z,4.00
2018-09-26T12:17:21.847Z,4.30
2018-09-26T12:18:21.835Z,4.10
2018-09-26T12:19:21.819Z,4.00
2018-09-26T12:20:21.723Z,3.90
2018-09-26T12:21:30.356Z,3.70
2018-09-26T12:22:21.717Z,3.90
2018-09-26T12:23:21.598Z,4.40
2018-09-26T12:24:21.600Z,3.90
2018-09-26T12:25:21.554Z,3.70
2018-09-26T12:26:21.471Z,4.00
2018-09-26T12:27:21.487Z,4.10
2018-09-26T12:28:21.478Z,3.90
2018-09-26T12:29:21.379Z,4.10
2018-09-26T12:30:21.373Z,3.80
2018-09-26T12:31:21.298Z,3.80
2018-09-26T12:32:21.230Z,4.10
2018-09-26T12:33:21.224Z,3.90
2018-09-26T12:34:21.225Z,3.60
2018-09-26T12:35:21.124Z,3.40
2018-09-26T12:36:21.130Z,3.50
2018-09-26T12:37:21.045Z,3.20
2018-09-26T12:38:20.986Z,3.50
2018-09-26T12:39:20.947Z,4.00
2018-09-26T12:40:20.993Z,3.60
2018-09-26T12:41:20.870Z,3.40
2018-09-26T12:42:20.926Z,3.10
2018-09-26T12:43:20.934Z,3.20
2018-09-26T12:44:20.744Z,3.60
2018-09-26T12:45:20.703Z,3.30
2018-09-26T12:46:20.679Z,3.10
2018-09-26T12:47:20.651Z,3.40
2018-09-26T12:48:20.615Z,3.30
2018-09-26T12:49:20.539Z,3.30
2018-09-26T12:50:20.504Z,3.00
2018-09-26T12:51:20.459Z,3.80
2018-09-26T12:52:20.452Z,3.30
2018-09-26T12:53:20.386Z,3.50
2018-09-26T12:54:20.336Z,3.70
2018-09-26T12:55:20.291Z,3.60
2018-09-26T12:56:20.251Z,4.00
2018-09-26T12:57:20.210Z,3.60
2018-09-26T12:58:20.255Z,3.00
2018-09-26T12:59:20.130Z,3.00
2018-09-26T13:00:20.117Z,3.50
2018-09-26T13:01:20.045Z,3.40
2018-09-26T13:02:20.023Z,3.10
2018-09-26T13:03:19.960Z,3.30
2018-09-26T13:04:19.947Z,3.70
2018-09-26T13:05:19.881Z,3.30
2018-09-26T13:06:19.859Z,3.30
2018-09-26T13:07:19.793Z,3.40
2018-09-26T13:08:19.857Z,3.10
2018-09-26T13:09:19.712Z,3.00
2018-09-26T13:10:19.690Z,3.10
2018-09-26T13:11:19.633Z,3.00
2018-09-26T13:12:19.646Z,3.50
2018-09-26T13:13:19.546Z,3.00
2018-09-26T13:14:19.560Z,3.20
2018-09-26T13:15:19.461Z,3.20
2018-09-26T13:16:19.496Z,3.10
2018-09-26T13:17:19.375Z,3.10
2018-09-26T13:18:19.406Z,3.10